sensor_id;sensor_type;location;lat;lon;timestamp;P1;durP1;ratioP1;P2;durP2;ratioP2
28174;SDS011;59417;44.788;10.334;2023-02-21T00:01:47;74.80;;;46.53;;
28174;SDS011;59417;44.788;10.334;2023-02-21T00:04:31;74.00;;;46.10;;
28174;SDS011;59417;44.788;10.334;2023-02-21T00:07:15;73.20;;;47.20;;
28174;SDS011;59417;44.788;10.334;2023-02-21T00:10:00;73.07;;;44.97;;
28174;SDS011;59417;44.788;10.334;2023-02-21T00:12:44;77.13;;;45.83;;
28174;SDS011;59417;44.788;10.334;2023-02-21T00:15:28;72.00;;;45.88;;
28174;SDS011;59417;44.788;10.334;2023-02-21T00:18:13;68.40;;;45.53;;
28174;SDS011;59417;44.788;10.334;2023-02-21T00:21:00;71.03;;;45.08;;
28174;SDS011;59417;44.788;10.334;2023-02-21T00:23:47;72.93;;;44.67;;
28174;SDS011;59417;44.788;10.334;2023-02-21T00:26:31;74.15;;;45.35;;
28174;SDS011;59417;44.788;10.334;2023-02-21T00:29:16;75.22;;;44.60;;
28174;SDS011;59417;44.788;10.334;2023-02-21T00:32:00;70.40;;;43.80;;
28174;SDS011;59417;44.788;10.334;2023-02-21T00:34:45;68.90;;;43.58;;
28174;SDS011;59417;44.788;10.334;2023-02-21T00:37:29;72.10;;;43.13;;
28174;SDS011;59417;44.788;10.334;2023-02-21T00:40:14;73.47;;;45.45;;
28174;SDS011;59417;44.788;10.334;2023-02-21T00:42:59;79.05;;;45.03;;
28174;SDS011;59417;44.788;10.334;2023-02-21T00:45:43;70.88;;;45.53;;
28174;SDS011;59417;44.788;10.334;2023-02-21T00:48:28;74.35;;;44.00;;
28174;SDS011;59417;44.788;10.334;2023-02-21T00:51:13;70.40;;;44.45;;
28174;SDS011;59417;44.788;10.334;2023-02-21T00:53:58;71.35;;;43.85;;
28174;SDS011;59417;44.788;10.334;2023-02-21T00:56:42;70.32;;;44.72;;
28174;SDS011;59417;44.788;10.334;2023-02-21T00:59:27;66.00;;;40.72;;
28174;SDS011;59417;44.788;10.334;2023-02-21T01:02:11;70.95;;;44.47;;
28174;SDS011;59417;44.788;10.334;2023-02-21T01:04:55;76.60;;;44.50;;
28174;SDS011;59417;44.788;10.334;2023-02-21T01:07:40;74.57;;;46.20;;
28174;SDS011;59417;44.788;10.334;2023-02-21T01:10:24;67.88;;;45.42;;
28174;SDS011;59417;44.788;10.334;2023-02-21T01:13:08;80.75;;;44.88;;
28174;SDS011;59417;44.788;10.334;2023-02-21T01:15:58;66.72;;;43.42;;
28174;SDS011;59417;44.788;10.334;2023-02-21T01:18:48;74.40;;;43.05;;
28174;SDS011;59417;44.788;10.334;2023-02-21T01:21:33;66.55;;;42.85;;
28174;SDS011;59417;44.788;10.334;2023-02-21T01:24:18;65.22;;;42.00;;
28174;SDS011;59417;44.788;10.334;2023-02-21T01:27:05;68.22;;;42.08;;
28174;SDS011;59417;44.788;10.334;2023-02-21T01:29:49;69.63;;;42.42;;
28174;SDS011;59417;44.788;10.334;2023-02-21T01:32:36;72.60;;;43.35;;
28174;SDS011;59417;44.788;10.334;2023-02-21T01:35:20;70.97;;;43.95;;
28174;SDS011;59417;44.788;10.334;2023-02-21T01:38:04;65.82;;;41.58;;
28174;SDS011;59417;44.788;10.334;2023-02-21T01:40:48;64.43;;;40.25;;
28174;SDS011;59417;44.788;10.334;2023-02-21T01:43:36;75.13;;;42.03;;
28174;SDS011;59417;44.788;10.334;2023-02-21T01:46:20;66.22;;;40.53;;
28174;SDS011;59417;44.788;10.334;2023-02-21T01:49:09;75.32;;;43.40;;
28174;SDS011;59417;44.788;10.334;2023-02-21T01:51:56;66.07;;;41.58;;
28174;SDS011;59417;44.788;10.334;2023-02-21T01:54:45;70.65;;;43.47;;
28174;SDS011;59417;44.788;10.334;2023-02-21T01:57:32;64.60;;;42.30;;
28174;SDS011;59417;44.788;10.334;2023-02-21T02:00:18;72.53;;;42.40;;
28174;SDS011;59417;44.788;10.334;2023-02-21T02:03:03;69.72;;;44.63;;
28174;SDS011;59417;44.788;10.334;2023-02-21T02:05:54;68.72;;;43.35;;
28174;SDS011;59417;44.788;10.334;2023-02-21T02:08:47;73.30;;;43.60;;
28174;SDS011;59417;44.788;10.334;2023-02-21T02:17:02;72.65;;;44.15;;
28174;SDS011;59417;44.788;10.334;2023-02-21T02:22:53;76.03;;;43.75;;
28174;SDS011;59417;44.788;10.334;2023-02-21T02:37:30;63.58;;;40.42;;
28174;SDS011;59417;44.788;10.334;2023-02-21T02:42:50;73.35;;;42.83;;
28174;SDS011;59417;44.788;10.334;2023-02-21T02:51:12;71.00;;;42.78;;
28174;SDS011;59417;44.788;10.334;2023-02-21T02:53:39;65.40;;;42.60;;
28174;SDS011;59417;44.788;10.334;2023-02-21T02:56:06;64.50;;;39.90;;
28174;SDS011;59417;44.788;10.334;2023-02-21T02:58:37;60.38;;;38.78;;
28174;SDS011;59417;44.788;10.334;2023-02-21T03:04:26;64.68;;;39.92;;
28174;SDS011;59417;44.788;10.334;2023-02-21T03:07:17;69.07;;;39.33;;
28174;SDS011;59417;44.788;10.334;2023-02-21T03:13:14;60.42;;;38.22;;
28174;SDS011;59417;44.788;10.334;2023-02-21T03:15:55;59.72;;;37.38;;
28174;SDS011;59417;44.788;10.334;2023-02-21T03:21:06;65.07;;;39.67;;
28174;SDS011;59417;44.788;10.334;2023-02-21T03:23:37;70.68;;;38.33;;
28174;SDS011;59417;44.788;10.334;2023-02-21T03:26:05;62.15;;;36.55;;
28174;SDS011;59417;44.788;10.334;2023-02-21T03:28:34;58.70;;;39.17;;
28174;SDS011;59417;44.788;10.334;2023-02-21T03:31:02;61.22;;;38.78;;
28174;SDS011;59417;44.788;10.334;2023-02-21T03:33:31;57.17;;;37.13;;
28174;SDS011;59417;44.788;10.334;2023-02-21T03:36:04;63.60;;;38.03;;
28174;SDS011;59417;44.788;10.334;2023-02-21T03:38:35;62.85;;;37.42;;
28174;SDS011;59417;44.788;10.334;2023-02-21T03:41:01;64.43;;;37.53;;
28174;SDS011;59417;44.788;10.334;2023-02-21T03:43:29;57.38;;;37.25;;
28174;SDS011;59417;44.788;10.334;2023-02-21T03:45:59;55.92;;;35.90;;
28174;SDS011;59417;44.788;10.334;2023-02-21T03:48:27;64.13;;;37.63;;
28174;SDS011;59417;44.788;10.334;2023-02-21T03:50:54;68.63;;;37.95;;
28174;SDS011;59417;44.788;10.334;2023-02-21T03:53:22;65.32;;;37.10;;
28174;SDS011;59417;44.788;10.334;2023-02-21T03:55:54;59.92;;;37.83;;
28174;SDS011;59417;44.788;10.334;2023-02-21T03:58:30;64.10;;;36.85;;
28174;SDS011;59417;44.788;10.334;2023-02-21T04:00:59;55.20;;;36.10;;
28174;SDS011;59417;44.788;10.334;2023-02-21T04:03:30;58.63;;;37.70;;
28174;SDS011;59417;44.788;10.334;2023-02-21T04:06:06;64.85;;;38.60;;
28174;SDS011;59417;44.788;10.334;2023-02-21T04:08:32;58.78;;;38.50;;
28174;SDS011;59417;44.788;10.334;2023-02-21T04:11:06;56.90;;;37.38;;
28174;SDS011;59417;44.788;10.334;2023-02-21T04:13:34;60.53;;;37.60;;
28174;SDS011;59417;44.788;10.334;2023-02-21T04:16:03;57.42;;;36.63;;
28174;SDS011;59417;44.788;10.334;2023-02-21T04:18:31;55.60;;;34.38;;
28174;SDS011;59417;44.788;10.334;2023-02-21T04:20:59;54.28;;;34.90;;
28174;SDS011;59417;44.788;10.334;2023-02-21T04:23:28;50.50;;;33.47;;
28174;SDS011;59417;44.788;10.334;2023-02-21T04:26:02;54.67;;;34.08;;
28174;SDS011;59417;44.788;10.334;2023-02-21T04:28:38;56.55;;;33.58;;
28174;SDS011;59417;44.788;10.334;2023-02-21T04:31:03;47.90;;;30.90;;
28174;SDS011;59417;44.788;10.334;2023-02-21T04:33:29;53.80;;;31.67;;
28174;SDS011;59417;44.788;10.334;2023-02-21T04:35:58;53.97;;;32.97;;
28174;SDS011;59417;44.788;10.334;2023-02-21T04:38:32;53.58;;;31.42;;
28174;SDS011;59417;44.788;10.334;2023-02-21T04:40:58;49.50;;;30.30;;
28174;SDS011;59417;44.788;10.334;2023-02-21T04:43:25;51.80;;;31.05;;
28174;SDS011;59417;44.788;10.334;2023-02-21T04:45:54;51.97;;;30.83;;
28174;SDS011;59417;44.788;10.334;2023-02-21T04:48:23;52.42;;;30.58;;
28174;SDS011;59417;44.788;10.334;2023-02-21T04:50:52;53.83;;;30.92;;
28174;SDS011;59417;44.788;10.334;2023-02-21T04:53:18;51.78;;;30.55;;
28174;SDS011;59417;44.788;10.334;2023-02-21T04:55:44;53.28;;;31.88;;
28174;SDS011;59417;44.788;10.334;2023-02-21T04:58:09;50.92;;;30.13;;
28174;SDS011;59417;44.788;10.334;2023-02-21T05:00:35;49.67;;;30.48;;
28174;SDS011;59417;44.788;10.334;2023-02-21T05:03:00;48.67;;;30.80;;
28174;SDS011;59417;44.788;10.334;2023-02-21T05:05:26;52.40;;;30.90;;
28174;SDS011;59417;44.788;10.334;2023-02-21T05:07:52;50.90;;;30.88;;
28174;SDS011;59417;44.788;10.334;2023-02-21T05:10:17;50.10;;;30.88;;
28174;SDS011;59417;44.788;10.334;2023-02-21T05:12:43;50.45;;;32.08;;
28174;SDS011;59417;44.788;10.334;2023-02-21T05:15:10;48.15;;;30.05;;
28174;SDS011;59417;44.788;10.334;2023-02-21T05:17:37;55.10;;;31.00;;
28174;SDS011;59417;44.788;10.334;2023-02-21T05:20:03;47.33;;;30.60;;
28174;SDS011;59417;44.788;10.334;2023-02-21T05:22:37;49.50;;;31.65;;
28174;SDS011;59417;44.788;10.334;2023-02-21T05:25:25;56.72;;;31.27;;
28174;SDS011;59417;44.788;10.334;2023-02-21T05:27:51;51.33;;;31.70;;
28174;SDS011;59417;44.788;10.334;2023-02-21T05:30:19;49.40;;;29.80;;
28174;SDS011;59417;44.788;10.334;2023-02-21T05:32:48;47.75;;;30.42;;
28174;SDS011;59417;44.788;10.334;2023-02-21T05:35:14;54.33;;;31.63;;
28174;SDS011;59417;44.788;10.334;2023-02-21T05:37:41;54.50;;;32.17;;
28174;SDS011;59417;44.788;10.334;2023-02-21T05:40:06;46.53;;;29.63;;
28174;SDS011;59417;44.788;10.334;2023-02-21T05:42:36;66.18;;;33.42;;
28174;SDS011;59417;44.788;10.334;2023-02-21T05:45:01;54.38;;;33.25;;
28174;SDS011;59417;44.788;10.334;2023-02-21T05:47:32;52.08;;;32.45;;
28174;SDS011;59417;44.788;10.334;2023-02-21T05:49:58;58.70;;;34.92;;
28174;SDS011;59417;44.788;10.334;2023-02-21T05:52:24;63.10;;;37.97;;
28174;SDS011;59417;44.788;10.334;2023-02-21T05:54:50;54.95;;;35.13;;
28174;SDS011;59417;44.788;10.334;2023-02-21T05:57:17;66.57;;;38.35;;
28174;SDS011;59417;44.788;10.334;2023-02-21T05:59:43;66.63;;;39.53;;
28174;SDS011;59417;44.788;10.334;2023-02-21T06:02:12;61.85;;;39.38;;
28174;SDS011;59417;44.788;10.334;2023-02-21T06:04:41;67.53;;;40.47;;
28174;SDS011;59417;44.788;10.334;2023-02-21T06:07:07;67.97;;;39.38;;
28174;SDS011;59417;44.788;10.334;2023-02-21T06:09:33;70.82;;;40.45;;
28174;SDS011;59417;44.788;10.334;2023-02-21T06:11:59;73.15;;;42.53;;
28174;SDS011;59417;44.788;10.334;2023-02-21T06:14:24;68.40;;;39.80;;
28174;SDS011;59417;44.788;10.334;2023-02-21T06:16:51;67.65;;;40.17;;
28174;SDS011;59417;44.788;10.334;2023-02-21T06:19:17;63.95;;;39.88;;
28174;SDS011;59417;44.788;10.334;2023-02-21T06:21:43;61.28;;;37.28;;
28174;SDS011;59417;44.788;10.334;2023-02-21T06:24:09;68.60;;;37.65;;
28174;SDS011;59417;44.788;10.334;2023-02-21T06:26:35;62.60;;;38.05;;
28174;SDS011;59417;44.788;10.334;2023-02-21T06:29:04;60.72;;;37.80;;
28174;SDS011;59417;44.788;10.334;2023-02-21T06:31:30;70.07;;;36.10;;
28174;SDS011;59417;44.788;10.334;2023-02-21T06:33:56;68.43;;;38.83;;
28174;SDS011;59417;44.788;10.334;2023-02-21T06:36:23;59.60;;;35.65;;
28174;SDS011;59417;44.788;10.334;2023-02-21T06:38:50;62.60;;;36.42;;
28174;SDS011;59417;44.788;10.334;2023-02-21T06:41:20;63.03;;;35.83;;
28174;SDS011;59417;44.788;10.334;2023-02-21T06:43:51;58.22;;;35.30;;
28174;SDS011;59417;44.788;10.334;2023-02-21T06:46:25;55.20;;;33.20;;
28174;SDS011;59417;44.788;10.334;2023-02-21T06:48:55;59.33;;;35.40;;
28174;SDS011;59417;44.788;10.334;2023-02-21T06:51:32;57.72;;;35.65;;
28174;SDS011;59417;44.788;10.334;2023-02-21T06:53:59;60.67;;;35.70;;
28174;SDS011;59417;44.788;10.334;2023-02-21T06:56:25;63.78;;;35.53;;
28174;SDS011;59417;44.788;10.334;2023-02-21T06:58:54;60.00;;;35.75;;
28174;SDS011;59417;44.788;10.334;2023-02-21T07:01:25;59.47;;;34.92;;
28174;SDS011;59417;44.788;10.334;2023-02-21T07:03:53;60.50;;;34.67;;
28174;SDS011;59417;44.788;10.334;2023-02-21T07:06:19;59.42;;;34.50;;
28174;SDS011;59417;44.788;10.334;2023-02-21T07:08:45;59.67;;;36.05;;
28174;SDS011;59417;44.788;10.334;2023-02-21T07:11:12;60.30;;;35.67;;
28174;SDS011;59417;44.788;10.334;2023-02-21T07:13:48;59.47;;;36.72;;
28174;SDS011;59417;44.788;10.334;2023-02-21T07:16:16;56.55;;;35.67;;
28174;SDS011;59417;44.788;10.334;2023-02-21T07:18:44;60.95;;;34.60;;
28174;SDS011;59417;44.788;10.334;2023-02-21T07:21:14;59.80;;;36.40;;
28174;SDS011;59417;44.788;10.334;2023-02-21T07:23:42;55.85;;;33.95;;
28174;SDS011;59417;44.788;10.334;2023-02-21T07:26:08;54.85;;;33.70;;
28174;SDS011;59417;44.788;10.334;2023-02-21T07:28:37;65.63;;;36.08;;
28174;SDS011;59417;44.788;10.334;2023-02-21T07:31:03;65.35;;;37.83;;
28174;SDS011;59417;44.788;10.334;2023-02-21T07:33:35;58.30;;;36.72;;
28174;SDS011;59417;44.788;10.334;2023-02-21T07:36:01;57.90;;;35.17;;
28174;SDS011;59417;44.788;10.334;2023-02-21T07:38:28;64.72;;;36.28;;
28174;SDS011;59417;44.788;10.334;2023-02-21T07:40:58;62.05;;;37.33;;
28174;SDS011;59417;44.788;10.334;2023-02-21T07:43:26;58.58;;;34.38;;
28174;SDS011;59417;44.788;10.334;2023-02-21T07:45:56;60.08;;;34.78;;
28174;SDS011;59417;44.788;10.334;2023-02-21T07:48:22;63.63;;;36.08;;
28174;SDS011;59417;44.788;10.334;2023-02-21T07:50:52;65.88;;;36.35;;
28174;SDS011;59417;44.788;10.334;2023-02-21T07:53:36;65.03;;;37.63;;
28174;SDS011;59417;44.788;10.334;2023-02-21T07:56:02;66.22;;;38.83;;
28174;SDS011;59417;44.788;10.334;2023-02-21T07:58:28;64.47;;;37.97;;
28174;SDS011;59417;44.788;10.334;2023-02-21T08:00:56;70.13;;;41.92;;
28174;SDS011;59417;44.788;10.334;2023-02-21T08:03:35;60.92;;;38.28;;
28174;SDS011;59417;44.788;10.334;2023-02-21T08:06:02;68.65;;;38.58;;
28174;SDS011;59417;44.788;10.334;2023-02-21T08:08:30;75.70;;;40.13;;
28174;SDS011;59417;44.788;10.334;2023-02-21T08:11:10;66.80;;;40.65;;
28174;SDS011;59417;44.788;10.334;2023-02-21T08:13:36;63.38;;;38.65;;
28174;SDS011;59417;44.788;10.334;2023-02-21T08:16:06;66.47;;;38.25;;
28174;SDS011;59417;44.788;10.334;2023-02-21T08:18:37;64.55;;;37.97;;
28174;SDS011;59417;44.788;10.334;2023-02-21T08:21:03;67.88;;;39.17;;
28174;SDS011;59417;44.788;10.334;2023-02-21T08:23:35;68.93;;;38.90;;
28174;SDS011;59417;44.788;10.334;2023-02-21T08:26:09;64.70;;;39.88;;
28174;SDS011;59417;44.788;10.334;2023-02-21T08:28:35;59.88;;;38.63;;
28174;SDS011;59417;44.788;10.334;2023-02-21T08:31:09;71.40;;;40.85;;
28174;SDS011;59417;44.788;10.334;2023-02-21T08:33:37;64.63;;;39.80;;
28174;SDS011;59417;44.788;10.334;2023-02-21T08:36:07;69.13;;;40.50;;
28174;SDS011;59417;44.788;10.334;2023-02-21T08:38:39;71.95;;;42.50;;
28174;SDS011;59417;44.788;10.334;2023-02-21T08:41:05;80.10;;;45.35;;
28174;SDS011;59417;44.788;10.334;2023-02-21T08:43:51;70.05;;;42.30;;
28174;SDS011;59417;44.788;10.334;2023-02-21T08:46:21;77.50;;;44.60;;
28174;SDS011;59417;44.788;10.334;2023-02-21T08:48:47;80.35;;;45.63;;
28174;SDS011;59417;44.788;10.334;2023-02-21T08:51:13;79.90;;;44.83;;
28174;SDS011;59417;44.788;10.334;2023-02-21T08:53:39;83.45;;;49.10;;
28174;SDS011;59417;44.788;10.334;2023-02-21T08:56:08;104.68;;;51.95;;
28174;SDS011;59417;44.788;10.334;2023-02-21T08:58:36;101.22;;;53.90;;
28174;SDS011;59417;44.788;10.334;2023-02-21T09:01:08;99.57;;;56.15;;
28174;SDS011;59417;44.788;10.334;2023-02-21T09:03:38;97.30;;;57.08;;
28174;SDS011;59417;44.788;10.334;2023-02-21T09:06:07;110.18;;;61.35;;
28174;SDS011;59417;44.788;10.334;2023-02-21T09:08:34;106.47;;;61.70;;
28174;SDS011;59417;44.788;10.334;2023-02-21T09:11:04;98.97;;;54.13;;
28174;SDS011;59417;44.788;10.334;2023-02-21T09:13:31;116.75;;;61.75;;
28174;SDS011;59417;44.788;10.334;2023-02-21T09:16:01;105.40;;;58.65;;
28174;SDS011;59417;44.788;10.334;2023-02-21T09:18:43;104.63;;;58.60;;
28174;SDS011;59417;44.788;10.334;2023-02-21T09:21:21;104.10;;;59.92;;
28174;SDS011;59417;44.788;10.334;2023-02-21T09:23:47;115.55;;;63.22;;
28174;SDS011;59417;44.788;10.334;2023-02-21T09:26:17;110.75;;;63.13;;
28174;SDS011;59417;44.788;10.334;2023-02-21T09:28:46;103.40;;;62.38;;
28174;SDS011;59417;44.788;10.334;2023-02-21T09:31:24;104.50;;;59.97;;
28174;SDS011;59417;44.788;10.334;2023-02-21T09:33:50;104.50;;;60.67;;
28174;SDS011;59417;44.788;10.334;2023-02-21T09:36:15;111.72;;;63.97;;
28174;SDS011;59417;44.788;10.334;2023-02-21T09:38:52;109.38;;;64.47;;
28174;SDS011;59417;44.788;10.334;2023-02-21T09:41:22;109.15;;;62.92;;
28174;SDS011;59417;44.788;10.334;2023-02-21T09:43:54;113.45;;;65.47;;
28174;SDS011;59417;44.788;10.334;2023-02-21T09:46:23;98.13;;;60.03;;
28174;SDS011;59417;44.788;10.334;2023-02-21T09:48:57;104.70;;;62.05;;
28174;SDS011;59417;44.788;10.334;2023-02-21T09:51:24;109.53;;;61.13;;
28174;SDS011;59417;44.788;10.334;2023-02-21T09:53:50;100.93;;;59.15;;
28174;SDS011;59417;44.788;10.334;2023-02-21T09:56:27;96.88;;;60.60;;
28174;SDS011;59417;44.788;10.334;2023-02-21T09:59:01;99.63;;;62.13;;
28174;SDS011;59417;44.788;10.334;2023-02-21T10:21:27;97.50;;;58.33;;
28174;SDS011;59417;44.788;10.334;2023-02-21T10:24:04;92.95;;;56.03;;
28174;SDS011;59417;44.788;10.334;2023-02-21T10:26:37;111.25;;;60.85;;
28174;SDS011;59417;44.788;10.334;2023-02-21T10:31:54;95.53;;;57.17;;
28174;SDS011;59417;44.788;10.334;2023-02-21T10:34:29;105.10;;;60.47;;
28174;SDS011;59417;44.788;10.334;2023-02-21T10:36:57;95.20;;;59.25;;
28174;SDS011;59417;44.788;10.334;2023-02-21T10:39:45;103.90;;;58.30;;
28174;SDS011;59417;44.788;10.334;2023-02-21T10:42:41;93.25;;;55.42;;
28174;SDS011;59417;44.788;10.334;2023-02-21T10:45:08;102.55;;;58.55;;
28174;SDS011;59417;44.788;10.334;2023-02-21T10:50:11;91.75;;;55.28;;
28174;SDS011;59417;44.788;10.334;2023-02-21T10:52:38;88.68;;;53.05;;
28174;SDS011;59417;44.788;10.334;2023-02-21T10:55:19;92.35;;;54.63;;
28174;SDS011;59417;44.788;10.334;2023-02-21T10:57:49;91.82;;;54.13;;
28174;SDS011;59417;44.788;10.334;2023-02-21T11:00:36;87.82;;;53.55;;
28174;SDS011;59417;44.788;10.334;2023-02-21T11:05:50;85.07;;;55.00;;
28174;SDS011;59417;44.788;10.334;2023-02-21T11:11:07;88.60;;;50.47;;
28174;SDS011;59417;44.788;10.334;2023-02-21T11:13:33;85.32;;;51.28;;
28174;SDS011;59417;44.788;10.334;2023-02-21T11:16:17;85.63;;;52.38;;
28174;SDS011;59417;44.788;10.334;2023-02-21T11:18:46;75.38;;;46.97;;
28174;SDS011;59417;44.788;10.334;2023-02-21T11:21:29;73.57;;;44.83;;
28174;SDS011;59417;44.788;10.334;2023-02-21T11:23:55;73.28;;;43.28;;
28174;SDS011;59417;44.788;10.334;2023-02-21T11:26:27;68.07;;;41.03;;
28174;SDS011;59417;44.788;10.334;2023-02-21T11:28:54;63.65;;;38.15;;
28174;SDS011;59417;44.788;10.334;2023-02-21T11:31:34;56.43;;;33.90;;
28174;SDS011;59417;44.788;10.334;2023-02-21T11:34:01;61.38;;;37.85;;
28174;SDS011;59417;44.788;10.334;2023-02-21T11:36:31;63.30;;;38.00;;
28174;SDS011;59417;44.788;10.334;2023-02-21T11:39:01;58.20;;;35.35;;
28174;SDS011;59417;44.788;10.334;2023-02-21T11:41:28;54.90;;;34.65;;
28174;SDS011;59417;44.788;10.334;2023-02-21T11:43:54;51.35;;;35.22;;
28174;SDS011;59417;44.788;10.334;2023-02-21T11:46:39;56.90;;;34.83;;
28174;SDS011;59417;44.788;10.334;2023-02-21T11:49:14;53.58;;;33.08;;
28174;SDS011;59417;44.788;10.334;2023-02-21T11:51:56;57.17;;;35.42;;
28174;SDS011;59417;44.788;10.334;2023-02-21T11:54:27;59.30;;;36.10;;
28174;SDS011;59417;44.788;10.334;2023-02-21T11:57:32;54.53;;;36.60;;
28174;SDS011;59417;44.788;10.334;2023-02-21T12:08:26;63.97;;;39.97;;
28174;SDS011;59417;44.788;10.334;2023-02-21T12:25:34;60.13;;;33.67;;
28174;SDS011;59417;44.788;10.334;2023-02-21T12:27:59;53.50;;;33.63;;
28174;SDS011;59417;44.788;10.334;2023-02-21T12:30:59;50.70;;;33.05;;
28174;SDS011;59417;44.788;10.334;2023-02-21T12:33:52;52.78;;;32.47;;
28174;SDS011;59417;44.788;10.334;2023-02-21T12:39:15;53.03;;;32.60;;
28174;SDS011;59417;44.788;10.334;2023-02-21T12:44:40;57.92;;;34.58;;
28174;SDS011;59417;44.788;10.334;2023-02-21T12:57:12;46.58;;;30.98;;
28174;SDS011;59417;44.788;10.334;2023-02-21T12:59:54;48.70;;;30.40;;
28174;SDS011;59417;44.788;10.334;2023-02-21T13:05:49;40.35;;;28.48;;
28174;SDS011;59417;44.788;10.334;2023-02-21T13:08:31;39.83;;;27.42;;
28174;SDS011;59417;44.788;10.334;2023-02-21T13:11:12;47.75;;;27.95;;
28174;SDS011;59417;44.788;10.334;2023-02-21T13:13:46;42.80;;;26.85;;
28174;SDS011;59417;44.788;10.334;2023-02-21T13:16:12;41.93;;;27.33;;
28174;SDS011;59417;44.788;10.334;2023-02-21T13:18:53;39.92;;;26.48;;
28174;SDS011;59417;44.788;10.334;2023-02-21T13:24:11;40.22;;;26.65;;
28174;SDS011;59417;44.788;10.334;2023-02-21T13:29:18;39.03;;;24.58;;
28174;SDS011;59417;44.788;10.334;2023-02-21T13:31:59;34.15;;;25.08;;
28174;SDS011;59417;44.788;10.334;2023-02-21T13:34:38;38.67;;;25.08;;
28174;SDS011;59417;44.788;10.334;2023-02-21T13:37:12;36.72;;;24.98;;
28174;SDS011;59417;44.788;10.334;2023-02-21T13:39:43;38.42;;;23.92;;
28174;SDS011;59417;44.788;10.334;2023-02-21T13:42:26;40.40;;;24.15;;
28174;SDS011;59417;44.788;10.334;2023-02-21T13:45:08;35.08;;;24.08;;
28174;SDS011;59417;44.788;10.334;2023-02-21T13:55:37;33.65;;;21.90;;
28174;SDS011;59417;44.788;10.334;2023-02-21T14:11:22;36.15;;;23.95;;
28174;SDS011;59417;44.788;10.334;2023-02-21T14:14:01;37.50;;;23.58;;
28174;SDS011;59417;44.788;10.334;2023-02-21T14:16:48;35.95;;;24.48;;
28174;SDS011;59417;44.788;10.334;2023-02-21T14:24:29;38.75;;;23.65;;
28174;SDS011;59417;44.788;10.334;2023-02-21T14:27:44;42.75;;;23.70;;
28174;SDS011;59417;44.788;10.334;2023-02-21T14:30:13;37.20;;;23.45;;
28174;SDS011;59417;44.788;10.334;2023-02-21T14:35:13;42.58;;;26.58;;
28174;SDS011;59417;44.788;10.334;2023-02-21T14:38:00;42.20;;;26.25;;
28174;SDS011;59417;44.788;10.334;2023-02-21T14:43:35;38.22;;;24.80;;
28174;SDS011;59417;44.788;10.334;2023-02-21T14:49:35;42.33;;;26.83;;
28174;SDS011;59417;44.788;10.334;2023-02-21T14:57:48;41.70;;;26.75;;
28174;SDS011;59417;44.788;10.334;2023-02-21T15:03:58;37.75;;;25.73;;
28174;SDS011;59417;44.788;10.334;2023-02-21T15:06:28;38.80;;;25.38;;
28174;SDS011;59417;44.788;10.334;2023-02-21T15:08:57;37.78;;;24.55;;
28174;SDS011;59417;44.788;10.334;2023-02-21T15:11:35;38.60;;;25.50;;
28174;SDS011;59417;44.788;10.334;2023-02-21T15:14:17;39.38;;;24.63;;
28174;SDS011;59417;44.788;10.334;2023-02-21T15:16:58;37.22;;;24.85;;
28174;SDS011;59417;44.788;10.334;2023-02-21T15:19:29;41.90;;;26.23;;
28174;SDS011;59417;44.788;10.334;2023-02-21T15:22:39;37.28;;;24.85;;
28174;SDS011;59417;44.788;10.334;2023-02-21T15:30:17;34.92;;;22.75;;
28174;SDS011;59417;44.788;10.334;2023-02-21T15:32:56;35.28;;;23.30;;
28174;SDS011;59417;44.788;10.334;2023-02-21T15:35:31;35.95;;;23.23;;
28174;SDS011;59417;44.788;10.334;2023-02-21T15:38:06;35.80;;;24.05;;
28174;SDS011;59417;44.788;10.334;2023-02-21T15:47:20;38.22;;;23.88;;
28174;SDS011;59417;44.788;10.334;2023-02-21T15:52:44;37.63;;;22.60;;
28174;SDS011;59417;44.788;10.334;2023-02-21T15:58:13;31.45;;;21.23;;
28174;SDS011;59417;44.788;10.334;2023-02-21T16:00:42;35.28;;;22.00;;
28174;SDS011;59417;44.788;10.334;2023-02-21T16:09:44;37.88;;;21.73;;
28174;SDS011;59417;44.788;10.334;2023-02-21T16:12:25;30.58;;;20.17;;
28174;SDS011;59417;44.788;10.334;2023-02-21T16:15:04;34.58;;;22.38;;
28174;SDS011;59417;44.788;10.334;2023-02-21T16:17:39;34.03;;;21.95;;
28174;SDS011;59417;44.788;10.334;2023-02-21T16:20:17;32.47;;;21.67;;
28174;SDS011;59417;44.788;10.334;2023-02-21T16:28:41;28.90;;;21.85;;
28174;SDS011;59417;44.788;10.334;2023-02-21T16:31:27;33.05;;;21.77;;
28174;SDS011;59417;44.788;10.334;2023-02-21T16:33:55;34.90;;;22.33;;
28174;SDS011;59417;44.788;10.334;2023-02-21T16:36:25;32.83;;;21.98;;
28174;SDS011;59417;44.788;10.334;2023-02-21T16:38:55;36.55;;;22.73;;
28174;SDS011;59417;44.788;10.334;2023-02-21T16:41:21;35.38;;;22.55;;
28174;SDS011;59417;44.788;10.334;2023-02-21T16:43:47;33.47;;;22.30;;
28174;SDS011;59417;44.788;10.334;2023-02-21T16:46:21;34.47;;;22.98;;
28174;SDS011;59417;44.788;10.334;2023-02-21T16:48:51;36.97;;;22.67;;
28174;SDS011;59417;44.788;10.334;2023-02-21T16:51:17;37.90;;;24.48;;
28174;SDS011;59417;44.788;10.334;2023-02-21T16:53:44;42.92;;;25.90;;
28174;SDS011;59417;44.788;10.334;2023-02-21T16:56:11;40.63;;;25.13;;
28174;SDS011;59417;44.788;10.334;2023-02-21T16:58:38;39.33;;;26.80;;
28174;SDS011;59417;44.788;10.334;2023-02-21T17:01:11;41.00;;;26.13;;
28174;SDS011;59417;44.788;10.334;2023-02-21T17:03:42;39.97;;;24.65;;
28174;SDS011;59417;44.788;10.334;2023-02-21T17:06:14;45.22;;;25.08;;
28174;SDS011;59417;44.788;10.334;2023-02-21T17:08:55;48.05;;;26.27;;
28174;SDS011;59417;44.788;10.334;2023-02-21T17:11:23;41.85;;;26.73;;
28174;SDS011;59417;44.788;10.334;2023-02-21T17:13:58;42.95;;;26.92;;
28174;SDS011;59417;44.788;10.334;2023-02-21T17:16:32;45.28;;;27.05;;
28174;SDS011;59417;44.788;10.334;2023-02-21T17:19:06;41.50;;;26.55;;
28174;SDS011;59417;44.788;10.334;2023-02-21T17:21:36;52.65;;;27.35;;
28174;SDS011;59417;44.788;10.334;2023-02-21T17:24:03;41.95;;;26.58;;
28174;SDS011;59417;44.788;10.334;2023-02-21T17:26:32;39.95;;;27.60;;
28174;SDS011;59417;44.788;10.334;2023-02-21T17:29:05;37.17;;;26.10;;
28174;SDS011;59417;44.788;10.334;2023-02-21T17:31:32;47.65;;;29.15;;
28174;SDS011;59417;44.788;10.334;2023-02-21T17:33:58;44.67;;;30.02;;
28174;SDS011;59417;44.788;10.334;2023-02-21T17:36:26;48.25;;;29.75;;
28174;SDS011;59417;44.788;10.334;2023-02-21T17:38:55;56.63;;;31.38;;
28174;SDS011;59417;44.788;10.334;2023-02-21T17:44:31;43.45;;;28.60;;
28174;SDS011;59417;44.788;10.334;2023-02-21T17:47:14;57.38;;;33.03;;
28174;SDS011;59417;44.788;10.334;2023-02-21T17:49:56;58.65;;;35.83;;
28174;SDS011;59417;44.788;10.334;2023-02-21T17:52:47;60.15;;;38.53;;
28174;SDS011;59417;44.788;10.334;2023-02-21T17:55:21;65.95;;;39.10;;
28174;SDS011;59417;44.788;10.334;2023-02-21T17:58:05;63.28;;;39.47;;
28174;SDS011;59417;44.788;10.334;2023-02-21T18:00:45;63.10;;;40.42;;